sensor_id;sensor_type;location;lat;lon;timestamp;P1;durP1;ratioP1;P2;durP2;ratioP2
63975;SDS011;50167;47.958;21.780;2022-10-16T00:01:11;27.57;;;17.87;;
63975;SDS011;50167;47.958;21.780;2022-10-16T00:03:36;23.83;;;16.47;;
63975;SDS011;50167;47.958;21.780;2022-10-16T00:06:04;22.93;;;15.47;;
63975;SDS011;50167;47.958;21.780;2022-10-16T00:08:31;26.50;;;15.50;;
63975;SDS011;50167;47.958;21.780;2022-10-16T00:10:59;28.00;;;17.73;;
63975;SDS011;50167;47.958;21.780;2022-10-16T00:13:32;24.30;;;18.80;;
63975;SDS011;50167;47.958;21.780;2022-10-16T00:16:00;27.93;;;17.20;;
63975;SDS011;50167;47.958;21.780;2022-10-16T00:18:28;28.23;;;16.67;;
63975;SDS011;50167;47.958;21.780;2022-10-16T00:20:54;26.83;;;19.23;;
63975;SDS011;50167;47.958;21.780;2022-10-16T00:23:23;26.00;;;16.57;;
63975;SDS011;50167;47.958;21.780;2022-10-16T00:26:01;24.00;;;16.57;;
63975;SDS011;50167;47.958;21.780;2022-10-16T00:28:27;24.23;;;16.13;;
63975;SDS011;50167;47.958;21.780;2022-10-16T00:30:53;23.73;;;17.23;;
63975;SDS011;50167;47.958;21.780;2022-10-16T00:33:20;21.17;;;15.60;;
63975;SDS011;50167;47.958;21.780;2022-10-16T00:35:47;25.93;;;16.37;;
63975;SDS011;50167;47.958;21.780;2022-10-16T00:38:14;23.53;;;17.07;;
63975;SDS011;50167;47.958;21.780;2022-10-16T00:40:40;32.10;;;18.20;;
63975;SDS011;50167;47.958;21.780;2022-10-16T00:43:12;28.30;;;16.30;;
63975;SDS011;50167;47.958;21.780;2022-10-16T00:46:03;25.30;;;15.97;;
63975;SDS011;50167;47.958;21.780;2022-10-16T00:48:39;22.83;;;15.77;;
63975;SDS011;50167;47.958;21.780;2022-10-16T00:51:06;25.17;;;15.00;;
63975;SDS011;50167;47.958;21.780;2022-10-16T00:53:33;30.83;;;18.27;;
63975;SDS011;50167;47.958;21.780;2022-10-16T00:56:00;25.00;;;15.97;;
63975;SDS011;50167;47.958;21.780;2022-10-16T00:58:27;32.80;;;18.60;;
63975;SDS011;50167;47.958;21.780;2022-10-16T01:00:53;26.00;;;17.67;;
63975;SDS011;50167;47.958;21.780;2022-10-16T01:03:32;29.63;;;18.10;;
63975;SDS011;50167;47.958;21.780;2022-10-16T01:09:03;22.77;;;14.87;;
63975;SDS011;50167;47.958;21.780;2022-10-16T01:17:22;25.03;;;16.07;;
63975;SDS011;50167;47.958;21.780;2022-10-16T01:28:11;25.57;;;16.07;;
63975;SDS011;50167;47.958;21.780;2022-10-16T01:30:40;24.20;;;14.23;;
63975;SDS011;50167;47.958;21.780;2022-10-16T01:33:10;26.63;;;15.37;;
63975;SDS011;50167;47.958;21.780;2022-10-16T01:35:47;23.10;;;14.63;;
63975;SDS011;50167;47.958;21.780;2022-10-16T01:38:19;23.17;;;15.53;;
63975;SDS011;50167;47.958;21.780;2022-10-16T01:41:00;27.67;;;17.60;;
63975;SDS011;50167;47.958;21.780;2022-10-16T01:43:31;28.93;;;18.43;;
63975;SDS011;50167;47.958;21.780;2022-10-16T01:46:01;28.97;;;17.90;;
63975;SDS011;50167;47.958;21.780;2022-10-16T01:48:28;28.77;;;17.07;;
63975;SDS011;50167;47.958;21.780;2022-10-16T01:51:03;30.53;;;18.33;;
63975;SDS011;50167;47.958;21.780;2022-10-16T01:53:31;23.37;;;16.50;;
63975;SDS011;50167;47.958;21.780;2022-10-16T01:55:59;26.20;;;17.67;;
63975;SDS011;50167;47.958;21.780;2022-10-16T01:58:27;31.47;;;15.30;;
63975;SDS011;50167;47.958;21.780;2022-10-16T02:00:57;29.63;;;18.05;;
63975;SDS011;50167;47.958;21.780;2022-10-16T02:03:23;27.87;;;17.10;;
63975;SDS011;50167;47.958;21.780;2022-10-16T02:05:53;29.27;;;18.23;;
63975;SDS011;50167;47.958;21.780;2022-10-16T02:08:22;27.03;;;16.93;;
63975;SDS011;50167;47.958;21.780;2022-10-16T02:10:54;25.13;;;17.20;;
63975;SDS011;50167;47.958;21.780;2022-10-16T02:13:23;20.57;;;14.63;;
63975;SDS011;50167;47.958;21.780;2022-10-16T02:15:53;21.33;;;13.77;;
63975;SDS011;50167;47.958;21.780;2022-10-16T02:18:19;28.00;;;16.60;;
63975;SDS011;50167;47.958;21.780;2022-10-16T02:23:49;33.40;;;16.93;;
63975;SDS011;50167;47.958;21.780;2022-10-16T02:26:19;25.87;;;16.53;;
63975;SDS011;50167;47.958;21.780;2022-10-16T02:29:06;20.27;;;14.87;;
63975;SDS011;50167;47.958;21.780;2022-10-16T02:34:03;19.87;;;13.60;;
63975;SDS011;50167;47.958;21.780;2022-10-16T02:36:32;23.73;;;15.70;;
63975;SDS011;50167;47.958;21.780;2022-10-16T02:38:59;23.97;;;16.87;;
63975;SDS011;50167;47.958;21.780;2022-10-16T02:41:26;26.47;;;15.87;;
63975;SDS011;50167;47.958;21.780;2022-10-16T02:43:53;24.60;;;15.83;;
63975;SDS011;50167;47.958;21.780;2022-10-16T02:46:20;24.27;;;17.13;;
63975;SDS011;50167;47.958;21.780;2022-10-16T02:48:46;23.93;;;15.53;;
63975;SDS011;50167;47.958;21.780;2022-10-16T02:51:12;20.67;;;14.50;;
63975;SDS011;50167;47.958;21.780;2022-10-16T02:53:39;31.33;;;15.60;;
63975;SDS011;50167;47.958;21.780;2022-10-16T02:56:05;23.57;;;14.33;;
63975;SDS011;50167;47.958;21.780;2022-10-16T02:58:31;22.80;;;14.63;;
63975;SDS011;50167;47.958;21.780;2022-10-16T03:00:57;20.20;;;14.40;;
63975;SDS011;50167;47.958;21.780;2022-10-16T03:03:23;25.37;;;15.07;;
63975;SDS011;50167;47.958;21.780;2022-10-16T03:05:49;24.43;;;16.97;;
63975;SDS011;50167;47.958;21.780;2022-10-16T03:08:15;23.60;;;16.00;;
63975;SDS011;50167;47.958;21.780;2022-10-16T03:10:41;28.77;;;17.13;;
63975;SDS011;50167;47.958;21.780;2022-10-16T03:13:07;21.90;;;15.90;;
63975;SDS011;50167;47.958;21.780;2022-10-16T03:15:33;27.60;;;16.20;;
63975;SDS011;50167;47.958;21.780;2022-10-16T03:17:59;21.83;;;15.10;;
63975;SDS011;50167;47.958;21.780;2022-10-16T03:20:25;21.90;;;14.33;;
63975;SDS011;50167;47.958;21.780;2022-10-16T03:22:52;21.83;;;14.87;;
63975;SDS011;50167;47.958;21.780;2022-10-16T03:25:18;20.73;;;14.63;;
63975;SDS011;50167;47.958;21.780;2022-10-16T03:27:44;21.80;;;15.80;;
63975;SDS011;50167;47.958;21.780;2022-10-16T03:30:10;20.00;;;14.17;;
63975;SDS011;50167;47.958;21.780;2022-10-16T03:32:37;20.17;;;14.17;;
63975;SDS011;50167;47.958;21.780;2022-10-16T03:35:03;30.40;;;14.93;;
63975;SDS011;50167;47.958;21.780;2022-10-16T03:37:30;23.13;;;14.97;;
63975;SDS011;50167;47.958;21.780;2022-10-16T03:39:56;20.27;;;14.40;;
63975;SDS011;50167;47.958;21.780;2022-10-16T03:42:22;24.73;;;15.37;;
63975;SDS011;50167;47.958;21.780;2022-10-16T03:44:49;20.83;;;14.20;;
63975;SDS011;50167;47.958;21.780;2022-10-16T03:47:15;23.73;;;15.90;;
63975;SDS011;50167;47.958;21.780;2022-10-16T03:49:43;21.90;;;14.90;;
63975;SDS011;50167;47.958;21.780;2022-10-16T03:52:09;27.53;;;16.93;;
63975;SDS011;50167;47.958;21.780;2022-10-16T03:54:35;23.57;;;16.23;;
63975;SDS011;50167;47.958;21.780;2022-10-16T03:57:01;20.30;;;14.83;;
63975;SDS011;50167;47.958;21.780;2022-10-16T03:59:28;26.30;;;16.13;;
63975;SDS011;50167;47.958;21.780;2022-10-16T04:01:54;22.33;;;16.30;;
63975;SDS011;50167;47.958;21.780;2022-10-16T04:04:20;20.13;;;15.80;;
63975;SDS011;50167;47.958;21.780;2022-10-16T04:06:45;23.73;;;16.27;;
63975;SDS011;50167;47.958;21.780;2022-10-16T04:09:12;28.07;;;16.87;;
63975;SDS011;50167;47.958;21.780;2022-10-16T04:11:38;26.53;;;17.77;;
63975;SDS011;50167;47.958;21.780;2022-10-16T04:14:04;20.33;;;15.57;;
63975;SDS011;50167;47.958;21.780;2022-10-16T04:16:30;20.73;;;15.77;;
63975;SDS011;50167;47.958;21.780;2022-10-16T04:18:56;21.30;;;15.13;;
63975;SDS011;50167;47.958;21.780;2022-10-16T04:21:22;22.97;;;14.17;;
63975;SDS011;50167;47.958;21.780;2022-10-16T04:23:49;19.07;;;14.27;;
63975;SDS011;50167;47.958;21.780;2022-10-16T04:26:15;25.40;;;16.53;;
63975;SDS011;50167;47.958;21.780;2022-10-16T04:28:41;19.70;;;15.40;;
63975;SDS011;50167;47.958;21.780;2022-10-16T04:31:07;21.37;;;15.47;;
63975;SDS011;50167;47.958;21.780;2022-10-16T04:33:33;24.57;;;16.10;;
63975;SDS011;50167;47.958;21.780;2022-10-16T04:35:59;24.90;;;16.70;;
63975;SDS011;50167;47.958;21.780;2022-10-16T04:38:27;23.17;;;15.70;;
63975;SDS011;50167;47.958;21.780;2022-10-16T04:40:54;24.80;;;15.53;;
63975;SDS011;50167;47.958;21.780;2022-10-16T04:43:20;23.83;;;15.97;;
63975;SDS011;50167;47.958;21.780;2022-10-16T04:45:46;22.03;;;15.03;;
63975;SDS011;50167;47.958;21.780;2022-10-16T04:48:15;20.83;;;15.47;;
63975;SDS011;50167;47.958;21.780;2022-10-16T04:50:41;23.60;;;14.93;;
63975;SDS011;50167;47.958;21.780;2022-10-16T04:53:07;27.47;;;16.63;;
63975;SDS011;50167;47.958;21.780;2022-10-16T04:55:33;25.97;;;15.30;;
63975;SDS011;50167;47.958;21.780;2022-10-16T04:58:00;25.03;;;17.60;;
63975;SDS011;50167;47.958;21.780;2022-10-16T05:00:26;27.40;;;16.30;;
63975;SDS011;50167;47.958;21.780;2022-10-16T05:02:52;23.67;;;16.07;;
63975;SDS011;50167;47.958;21.780;2022-10-16T05:05:19;17.97;;;14.43;;
63975;SDS011;50167;47.958;21.780;2022-10-16T05:07:45;23.20;;;14.63;;
63975;SDS011;50167;47.958;21.780;2022-10-16T05:10:15;25.43;;;16.00;;
63975;SDS011;50167;47.958;21.780;2022-10-16T05:12:41;28.80;;;14.07;;
63975;SDS011;50167;47.958;21.780;2022-10-16T05:15:08;19.37;;;13.90;;
63975;SDS011;50167;47.958;21.780;2022-10-16T05:17:35;22.57;;;13.90;;
63975;SDS011;50167;47.958;21.780;2022-10-16T05:20:01;16.97;;;11.67;;
63975;SDS011;50167;47.958;21.780;2022-10-16T05:22:28;14.90;;;10.87;;
63975;SDS011;50167;47.958;21.780;2022-10-16T05:24:55;13.23;;;10.67;;
63975;SDS011;50167;47.958;21.780;2022-10-16T05:27:21;15.00;;;9.83;;
63975;SDS011;50167;47.958;21.780;2022-10-16T05:29:47;22.83;;;10.37;;
63975;SDS011;50167;47.958;21.780;2022-10-16T05:32:14;19.07;;;10.40;;
63975;SDS011;50167;47.958;21.780;2022-10-16T05:34:43;14.60;;;9.97;;
63975;SDS011;50167;47.958;21.780;2022-10-16T05:37:10;15.53;;;10.27;;
63975;SDS011;50167;47.958;21.780;2022-10-16T05:39:37;19.17;;;9.93;;
63975;SDS011;50167;47.958;21.780;2022-10-16T05:42:04;16.47;;;10.17;;
63975;SDS011;50167;47.958;21.780;2022-10-16T05:44:30;17.33;;;9.97;;
63975;SDS011;50167;47.958;21.780;2022-10-16T05:46:57;17.23;;;11.70;;
63975;SDS011;50167;47.958;21.780;2022-10-16T05:49:23;15.87;;;10.37;;
63975;SDS011;50167;47.958;21.780;2022-10-16T05:51:49;20.63;;;11.23;;
63975;SDS011;50167;47.958;21.780;2022-10-16T05:54:15;18.97;;;12.03;;
63975;SDS011;50167;47.958;21.780;2022-10-16T05:56:42;12.53;;;9.60;;
63975;SDS011;50167;47.958;21.780;2022-10-16T05:59:08;14.73;;;10.43;;
63975;SDS011;50167;47.958;21.780;2022-10-16T06:01:34;18.10;;;11.60;;
63975;SDS011;50167;47.958;21.780;2022-10-16T06:04:00;14.07;;;12.33;;
63975;SDS011;50167;47.958;21.780;2022-10-16T06:06:28;14.27;;;11.70;;
63975;SDS011;50167;47.958;21.780;2022-10-16T06:08:56;21.53;;;13.13;;
63975;SDS011;50167;47.958;21.780;2022-10-16T06:11:26;14.73;;;12.37;;
63975;SDS011;50167;47.958;21.780;2022-10-16T06:13:57;22.57;;;17.50;;
63975;SDS011;50167;47.958;21.780;2022-10-16T06:16:30;22.73;;;17.60;;
63975;SDS011;50167;47.958;21.780;2022-10-16T06:18:57;24.23;;;19.63;;
63975;SDS011;50167;47.958;21.780;2022-10-16T06:21:24;28.33;;;20.17;;
63975;SDS011;50167;47.958;21.780;2022-10-16T06:23:52;29.90;;;20.60;;
63975;SDS011;50167;47.958;21.780;2022-10-16T06:26:21;30.77;;;21.83;;
63975;SDS011;50167;47.958;21.780;2022-10-16T06:28:49;31.47;;;21.33;;
63975;SDS011;50167;47.958;21.780;2022-10-16T06:31:16;25.43;;;17.83;;
63975;SDS011;50167;47.958;21.780;2022-10-16T06:33:43;27.33;;;17.57;;
63975;SDS011;50167;47.958;21.780;2022-10-16T06:36:12;21.87;;;15.97;;
63975;SDS011;50167;47.958;21.780;2022-10-16T06:38:40;23.40;;;16.57;;
63975;SDS011;50167;47.958;21.780;2022-10-16T06:41:08;24.67;;;18.17;;
63975;SDS011;50167;47.958;21.780;2022-10-16T06:43:38;24.18;;;16.93;;
63975;SDS011;50167;47.958;21.780;2022-10-16T06:46:04;30.63;;;20.43;;
63975;SDS011;50167;47.958;21.780;2022-10-16T06:48:34;38.63;;;24.10;;
63975;SDS011;50167;47.958;21.780;2022-10-16T06:51:02;31.97;;;22.33;;
63975;SDS011;50167;47.958;21.780;2022-10-16T06:56:11;28.73;;;17.37;;
63975;SDS011;50167;47.958;21.780;2022-10-16T06:58:43;32.50;;;17.43;;
63975;SDS011;50167;47.958;21.780;2022-10-16T07:01:09;24.83;;;17.63;;
63975;SDS011;50167;47.958;21.780;2022-10-16T07:03:37;28.57;;;17.97;;
63975;SDS011;50167;47.958;21.780;2022-10-16T07:06:06;26.83;;;16.90;;
63975;SDS011;50167;47.958;21.780;2022-10-16T07:08:34;24.40;;;17.03;;
63975;SDS011;50167;47.958;21.780;2022-10-16T07:11:04;26.73;;;17.90;;
63975;SDS011;50167;47.958;21.780;2022-10-16T07:13:37;25.80;;;18.12;;
63975;SDS011;50167;47.958;21.780;2022-10-16T07:18:39;30.40;;;17.20;;
63975;SDS011;50167;47.958;21.780;2022-10-16T07:21:12;27.97;;;18.23;;
63975;SDS011;50167;47.958;21.780;2022-10-16T07:23:42;24.20;;;16.03;;
63975;SDS011;50167;47.958;21.780;2022-10-16T07:26:09;26.37;;;15.90;;
63975;SDS011;50167;47.958;21.780;2022-10-16T07:28:36;24.27;;;15.73;;
63975;SDS011;50167;47.958;21.780;2022-10-16T07:31:06;15.53;;;13.60;;
63975;SDS011;50167;47.958;21.780;2022-10-16T07:33:36;23.77;;;14.27;;
63975;SDS011;50167;47.958;21.780;2022-10-16T07:36:04;21.13;;;13.77;;
63975;SDS011;50167;47.958;21.780;2022-10-16T07:38:31;16.50;;;13.10;;
63975;SDS011;50167;47.958;21.780;2022-10-16T07:41:01;17.20;;;13.93;;
63975;SDS011;50167;47.958;21.780;2022-10-16T07:43:31;28.87;;;13.97;;
63975;SDS011;50167;47.958;21.780;2022-10-16T07:45:57;17.90;;;12.27;;
63975;SDS011;50167;47.958;21.780;2022-10-16T07:48:26;18.63;;;13.30;;
63975;SDS011;50167;47.958;21.780;2022-10-16T07:50:57;22.20;;;14.60;;
63975;SDS011;50167;47.958;21.780;2022-10-16T07:53:27;18.97;;;14.47;;
63975;SDS011;50167;47.958;21.780;2022-10-16T07:55:57;39.00;;;14.37;;
63975;SDS011;50167;47.958;21.780;2022-10-16T07:58:25;19.83;;;13.47;;
63975;SDS011;50167;47.958;21.780;2022-10-16T08:00:53;18.87;;;13.20;;
63975;SDS011;50167;47.958;21.780;2022-10-16T08:03:20;24.67;;;14.50;;
63975;SDS011;50167;47.958;21.780;2022-10-16T08:05:46;19.67;;;12.33;;
63975;SDS011;50167;47.958;21.780;2022-10-16T08:08:12;25.73;;;15.17;;
63975;SDS011;50167;47.958;21.780;2022-10-16T08:10:40;19.87;;;13.10;;
63975;SDS011;50167;47.958;21.780;2022-10-16T08:13:07;16.57;;;13.83;;
63975;SDS011;50167;47.958;21.780;2022-10-16T08:15:33;21.33;;;13.27;;
63975;SDS011;50167;47.958;21.780;2022-10-16T08:18:03;15.20;;;12.37;;
63975;SDS011;50167;47.958;21.780;2022-10-16T08:23:01;20.50;;;12.13;;
63975;SDS011;50167;47.958;21.780;2022-10-16T08:25:28;17.50;;;13.07;;
63975;SDS011;50167;47.958;21.780;2022-10-16T08:27:55;22.47;;;14.03;;
63975;SDS011;50167;47.958;21.780;2022-10-16T08:30:22;21.13;;;14.10;;
63975;SDS011;50167;47.958;21.780;2022-10-16T08:32:49;21.67;;;13.37;;
63975;SDS011;50167;47.958;21.780;2022-10-16T08:35:15;57.53;;;14.33;;
63975;SDS011;50167;47.958;21.780;2022-10-16T08:37:42;20.23;;;13.17;;
63975;SDS011;50167;47.958;21.780;2022-10-16T08:40:16;22.83;;;13.07;;
63975;SDS011;50167;47.958;21.780;2022-10-16T08:48:30;16.67;;;12.33;;
63975;SDS011;50167;47.958;21.780;2022-10-16T08:51:22;15.97;;;11.73;;
63975;SDS011;50167;47.958;21.780;2022-10-16T08:54:03;14.80;;;11.37;;
63975;SDS011;50167;47.958;21.780;2022-10-16T08:56:31;21.35;;;12.05;;
63975;SDS011;50167;47.958;21.780;2022-10-16T08:58:59;14.80;;;10.90;;
63975;SDS011;50167;47.958;21.780;2022-10-16T09:01:32;17.00;;;11.93;;
63975;SDS011;50167;47.958;21.780;2022-10-16T09:07:31;13.70;;;10.05;;
63975;SDS011;50167;47.958;21.780;2022-10-16T09:18:54;14.95;;;10.08;;
63975;SDS011;50167;47.958;21.780;2022-10-16T09:21:35;13.43;;;9.58;;
63975;SDS011;50167;47.958;21.780;2022-10-16T09:24:14;11.50;;;8.80;;
63975;SDS011;50167;47.958;21.780;2022-10-16T09:26:47;16.52;;;8.25;;
63975;SDS011;50167;47.958;21.780;2022-10-16T09:29:14;12.53;;;7.40;;
63975;SDS011;50167;47.958;21.780;2022-10-16T09:31:41;16.20;;;8.35;;
63975;SDS011;50167;47.958;21.780;2022-10-16T09:34:14;13.68;;;7.78;;
63975;SDS011;50167;47.958;21.780;2022-10-16T09:36:43;10.38;;;8.40;;
63975;SDS011;50167;47.958;21.780;2022-10-16T09:41:39;11.93;;;8.13;;
63975;SDS011;50167;47.958;21.780;2022-10-16T09:44:28;12.28;;;8.15;;
63975;SDS011;50167;47.958;21.780;2022-10-16T09:47:04;37.55;;;9.05;;
63975;SDS011;50167;47.958;21.780;2022-10-16T09:49:42;11.35;;;7.17;;
63975;SDS011;50167;47.958;21.780;2022-10-16T09:52:25;12.40;;;7.70;;
63975;SDS011;50167;47.958;21.780;2022-10-16T10:08:27;12.55;;;7.70;;
63975;SDS011;50167;47.958;21.780;2022-10-16T10:10:53;12.43;;;7.25;;
63975;SDS011;50167;47.958;21.780;2022-10-16T10:13:21;11.80;;;7.60;;
63975;SDS011;50167;47.958;21.780;2022-10-16T10:15:49;10.98;;;8.08;;
63975;SDS011;50167;47.958;21.780;2022-10-16T10:18:21;20.27;;;7.87;;
63975;SDS011;50167;47.958;21.780;2022-10-16T10:20:56;9.73;;;7.45;;
63975;SDS011;50167;47.958;21.780;2022-10-16T10:23:27;14.18;;;7.97;;
63975;SDS011;50167;47.958;21.780;2022-10-16T10:31:19;11.38;;;6.03;;
63975;SDS011;50167;47.958;21.780;2022-10-16T10:34:04;8.90;;;6.25;;
63975;SDS011;50167;47.958;21.780;2022-10-16T10:37:42;9.15;;;6.25;;
63975;SDS011;50167;47.958;21.780;2022-10-16T10:39:56;23.20;;;6.75;;
63975;SDS011;50167;47.958;21.780;2022-10-16T10:42:36;11.00;;;6.85;;
63975;SDS011;50167;47.958;21.780;2022-10-16T10:45:16;8.65;;;6.83;;
63975;SDS011;50167;47.958;21.780;2022-10-16T10:48:05;9.43;;;6.45;;
63975;SDS011;50167;47.958;21.780;2022-10-16T10:50:43;12.13;;;5.97;;
63975;SDS011;50167;47.958;21.780;2022-10-16T11:01:50;9.00;;;6.17;;
63975;SDS011;50167;47.958;21.780;2022-10-16T11:10:03;10.85;;;5.70;;
63975;SDS011;50167;47.958;21.780;2022-10-16T11:12:38;13.00;;;6.60;;
63975;SDS011;50167;47.958;21.780;2022-10-16T11:20:19;9.40;;;4.80;;
63975;SDS011;50167;47.958;21.780;2022-10-16T11:57:58;7.95;;;4.87;;
63975;SDS011;50167;47.958;21.780;2022-10-16T12:00:40;12.58;;;5.42;;
63975;SDS011;50167;47.958;21.780;2022-10-16T12:09:01;6.12;;;4.67;;
63975;SDS011;50167;47.958;21.780;2022-10-16T12:19:29;6.08;;;4.87;;
63975;SDS011;50167;47.958;21.780;2022-10-16T12:21:57;9.63;;;5.10;;
63975;SDS011;50167;47.958;21.780;2022-10-16T12:24:41;7.95;;;4.75;;
63975;SDS011;50167;47.958;21.780;2022-10-16T12:30:04;10.85;;;5.17;;
63975;SDS011;50167;47.958;21.780;2022-10-16T12:32:35;7.47;;;5.08;;
63975;SDS011;50167;47.958;21.780;2022-10-16T12:35:05;6.60;;;4.87;;
63975;SDS011;50167;47.958;21.780;2022-10-16T12:37:39;7.00;;;4.70;;
63975;SDS011;50167;47.958;21.780;2022-10-16T12:40:16;6.03;;;4.40;;
63975;SDS011;50167;47.958;21.780;2022-10-16T12:42:52;6.70;;;4.42;;
63975;SDS011;50167;47.958;21.780;2022-10-16T12:45:29;11.63;;;5.53;;
63975;SDS011;50167;47.958;21.780;2022-10-16T12:48:00;14.07;;;5.15;;
63975;SDS011;50167;47.958;21.780;2022-10-16T12:50:32;6.53;;;3.80;;
63975;SDS011;50167;47.958;21.780;2022-10-16T12:53:03;10.38;;;5.87;;
63975;SDS011;50167;47.958;21.780;2022-10-16T12:55:56;6.55;;;5.22;;
63975;SDS011;50167;47.958;21.780;2022-10-16T13:07:25;6.47;;;4.53;;
63975;SDS011;50167;47.958;21.780;2022-10-16T13:10:02;8.70;;;4.53;;
63975;SDS011;50167;47.958;21.780;2022-10-16T13:13:10;5.92;;;4.65;;
63975;SDS011;50167;47.958;21.780;2022-10-16T13:27:46;9.15;;;4.62;;
63975;SDS011;50167;47.958;21.780;2022-10-16T13:30:35;6.17;;;3.72;;
63975;SDS011;50167;47.958;21.780;2022-10-16T13:33:10;9.95;;;4.15;;
63975;SDS011;50167;47.958;21.780;2022-10-16T13:35:54;5.50;;;3.98;;
63975;SDS011;50167;47.958;21.780;2022-10-16T13:38:23;17.87;;;5.83;;
63975;SDS011;50167;47.958;21.780;2022-10-16T13:43:36;5.45;;;3.75;;
63975;SDS011;50167;47.958;21.780;2022-10-16T13:46:13;7.10;;;4.55;;
63975;SDS011;50167;47.958;21.780;2022-10-16T13:48:43;10.55;;;4.85;;
63975;SDS011;50167;47.958;21.780;2022-10-16T13:51:15;9.90;;;6.78;;
63975;SDS011;50167;47.958;21.780;2022-10-16T13:53:44;9.80;;;5.35;;
63975;SDS011;50167;47.958;21.780;2022-10-16T13:56:16;7.83;;;4.67;;
63975;SDS011;50167;47.958;21.780;2022-10-16T13:58:45;9.60;;;6.05;;
63975;SDS011;50167;47.958;21.780;2022-10-16T14:01:19;9.73;;;5.00;;
63975;SDS011;50167;47.958;21.780;2022-10-16T14:03:50;8.73;;;4.85;;
63975;SDS011;50167;47.958;21.780;2022-10-16T14:06:20;8.05;;;5.50;;
63975;SDS011;50167;47.958;21.780;2022-10-16T14:08:49;11.45;;;6.03;;
63975;SDS011;50167;47.958;21.780;2022-10-16T14:11:20;9.25;;;5.08;;
63975;SDS011;50167;47.958;21.780;2022-10-16T14:13:51;9.68;;;5.78;;
63975;SDS011;50167;47.958;21.780;2022-10-16T14:16:19;8.48;;;6.30;;
63975;SDS011;50167;47.958;21.780;2022-10-16T14:18:53;5.87;;;5.28;;
63975;SDS011;50167;47.958;21.780;2022-10-16T14:21:29;11.28;;;5.92;;
63975;SDS011;50167;47.958;21.780;2022-10-16T14:23:55;13.35;;;5.55;;
63975;SDS011;50167;47.958;21.780;2022-10-16T14:26:22;8.78;;;6.55;;
63975;SDS011;50167;47.958;21.780;2022-10-16T14:31:40;7.72;;;5.65;;
63975;SDS011;50167;47.958;21.780;2022-10-16T14:35:11;9.00;;;5.95;;
63975;SDS011;50167;47.958;21.780;2022-10-16T14:37:00;9.10;;;6.10;;
63975;SDS011;50167;47.958;21.780;2022-10-16T14:39:42;11.60;;;5.50;;
63975;SDS011;50167;47.958;21.780;2022-10-16T14:42:16;5.97;;;5.03;;
63975;SDS011;50167;47.958;21.780;2022-10-16T14:44:55;11.22;;;5.45;;
63975;SDS011;50167;47.958;21.780;2022-10-16T14:47:22;7.92;;;6.03;;
63975;SDS011;50167;47.958;21.780;2022-10-16T14:49:51;6.95;;;5.60;;
63975;SDS011;50167;47.958;21.780;2022-10-16T14:52:24;7.03;;;6.10;;
63975;SDS011;50167;47.958;21.780;2022-10-16T14:54:51;9.48;;;5.67;;
63975;SDS011;50167;47.958;21.780;2022-10-16T14:57:22;9.93;;;6.72;;
63975;SDS011;50167;47.958;21.780;2022-10-16T14:59:51;7.53;;;6.30;;
63975;SDS011;50167;47.958;21.780;2022-10-16T15:04:57;11.57;;;6.03;;
63975;SDS011;50167;47.958;21.780;2022-10-16T15:07:25;10.35;;;7.00;;
63975;SDS011;50167;47.958;21.780;2022-10-16T15:09:51;10.05;;;6.87;;
63975;SDS011;50167;47.958;21.780;2022-10-16T15:12:18;12.47;;;8.03;;
63975;SDS011;50167;47.958;21.780;2022-10-16T15:14:44;12.95;;;11.57;;
63975;SDS011;50167;47.958;21.780;2022-10-16T15:17:10;17.00;;;11.73;;
63975;SDS011;50167;47.958;21.780;2022-10-16T15:19:37;30.55;;;21.80;;
63975;SDS011;50167;47.958;21.780;2022-10-16T15:22:03;44.18;;;30.35;;
63975;SDS011;50167;47.958;21.780;2022-10-16T15:24:29;38.50;;;26.33;;
63975;SDS011;50167;47.958;21.780;2022-10-16T15:26:55;34.35;;;25.60;;
63975;SDS011;50167;47.958;21.780;2022-10-16T15:29:22;29.12;;;20.95;;
63975;SDS011;50167;47.958;21.780;2022-10-16T15:31:48;30.25;;;21.68;;
63975;SDS011;50167;47.958;21.780;2022-10-16T15:34:14;35.17;;;21.35;;
63975;SDS011;50167;47.958;21.780;2022-10-16T15:36:40;34.80;;;21.97;;
63975;SDS011;50167;47.958;21.780;2022-10-16T15:39:13;37.83;;;22.80;;
63975;SDS011;50167;47.958;21.780;2022-10-16T15:41:43;42.43;;;25.87;;
63975;SDS011;50167;47.958;21.780;2022-10-16T15:44:10;76.83;;;39.97;;
63975;SDS011;50167;47.958;21.780;2022-10-16T15:46:36;86.33;;;47.17;;
63975;SDS011;50167;47.958;21.780;2022-10-16T15:49:02;81.73;;;48.00;;
63975;SDS011;50167;47.958;21.780;2022-10-16T15:51:29;112.93;;;59.00;;
63975;SDS011;50167;47.958;21.780;2022-10-16T15:53:57;131.10;;;59.60;;
63975;SDS011;50167;47.958;21.780;2022-10-16T15:56:26;154.33;;;66.50;;
63975;SDS011;50167;47.958;21.780;2022-10-16T15:58:53;137.57;;;63.40;;
63975;SDS011;50167;47.958;21.780;2022-10-16T16:01:20;151.93;;;64.80;;
63975;SDS011;50167;47.958;21.780;2022-10-16T16:03:47;169.17;;;72.07;;
63975;SDS011;50167;47.958;21.780;2022-10-16T16:06:15;124.07;;;54.33;;
63975;SDS011;50167;47.958;21.780;2022-10-16T16:08:42;108.70;;;51.33;;
63975;SDS011;50167;47.958;21.780;2022-10-16T16:11:10;114.23;;;54.73;;
63975;SDS011;50167;47.958;21.780;2022-10-16T16:16:06;99.67;;;48.00;;
63975;SDS011;50167;47.958;21.780;2022-10-16T16:18:35;82.57;;;40.12;;
63975;SDS011;50167;47.958;21.780;2022-10-16T16:21:02;96.33;;;45.47;;
63975;SDS011;50167;47.958;21.780;2022-10-16T16:23:30;91.20;;;43.20;;
63975;SDS011;50167;47.958;21.780;2022-10-16T16:26:04;102.87;;;45.97;;
63975;SDS011;50167;47.958;21.780;2022-10-16T16:28:38;106.85;;;54.63;;
63975;SDS011;50167;47.958;21.780;2022-10-16T16:31:06;121.93;;;59.80;;
63975;SDS011;50167;47.958;21.780;2022-10-16T16:33:32;121.33;;;60.90;;
63975;SDS011;50167;47.958;21.780;2022-10-16T16:36:00;117.83;;;65.23;;
63975;SDS011;50167;47.958;21.780;2022-10-16T16:38:29;130.47;;;70.85;;
63975;SDS011;50167;47.958;21.780;2022-10-16T16:40:57;128.67;;;63.83;;
63975;SDS011;50167;47.958;21.780;2022-10-16T16:43:27;140.77;;;69.87;;
63975;SDS011;50167;47.958;21.780;2022-10-16T16:45:52;113.07;;;61.87;;
63975;SDS011;50167;47.958;21.780;2022-10-16T16:48:20;113.30;;;62.40;;
63975;SDS011;50167;47.958;21.780;2022-10-16T16:50:47;107.43;;;59.47;;
63975;SDS011;50167;47.958;21.780;2022-10-16T16:53:13;103.93;;;59.03;;
63975;SDS011;50167;47.958;21.780;2022-10-16T16:55:39;110.27;;;59.70;;
63975;SDS011;50167;47.958;21.780;2022-10-16T16:58:05;88.50;;;52.33;;
63975;SDS011;50167;47.958;21.780;2022-10-16T17:00:47;98.43;;;56.37;;
63975;SDS011;50167;47.958;21.780;2022-10-16T17:03:44;82.40;;;50.50;;
63975;SDS011;50167;47.958;21.780;2022-10-16T17:06:12;96.17;;;53.03;;
63975;SDS011;50167;47.958;21.780;2022-10-16T17:11:53;94.23;;;50.27;;
63975;SDS011;50167;47.958;21.780;2022-10-16T17:14:20;91.67;;;52.93;;
63975;SDS011;50167;47.958;21.780;2022-10-16T17:16:46;85.50;;;49.07;;
63975;SDS011;50167;47.958;21.780;2022-10-16T17:19:15;91.37;;;47.07;;
63975;SDS011;50167;47.958;21.780;2022-10-16T17:21:43;95.80;;;53.03;;
63975;SDS011;50167;47.958;21.780;2022-10-16T17:24:40;99.30;;;53.27;;